sensor_id;sensor_type;location;lat;lon;timestamp;temperature;humidity
16829;DHT22;8531;48.078;11.968;2024-01-10T00:01:43;-5.10;99.90
16829;DHT22;8531;48.078;11.968;2024-01-10T00:04:09;-5.00;99.90
16829;DHT22;8531;48.078;11.968;2024-01-10T00:06:35;-5.00;99.90
16829;DHT22;8531;48.078;11.968;2024-01-10T00:09:00;-5.00;99.90
16829;DHT22;8531;48.078;11.968;2024-01-10T00:11:26;-5.10;99.90
16829;DHT22;8531;48.078;11.968;2024-01-10T00:13:52;-5.10;99.90
16829;DHT22;8531;48.078;11.968;2024-01-10T00:16:17;-5.20;99.90
16829;DHT22;8531;48.078;11.968;2024-01-10T00:18:43;-5.20;99.90
16829;DHT22;8531;48.078;11.968;2024-01-10T00:21:10;-5.10;99.90
16829;DHT22;8531;48.078;11.968;2024-01-10T00:23:36;-5.10;99.90
16829;DHT22;8531;48.078;11.968;2024-01-10T00:26:01;-5.10;99.90
16829;DHT22;8531;48.078;11.968;2024-01-10T00:28:27;-5.00;99.90
16829;DHT22;8531;48.078;11.968;2024-01-10T00:30:52;-5.00;99.90
16829;DHT22;8531;48.078;11.968;2024-01-10T00:33:18;-5.10;99.90
16829;DHT22;8531;48.078;11.968;2024-01-10T00:35:44;-5.10;99.90
16829;DHT22;8531;48.078;11.968;2024-01-10T00:38:10;-5.20;99.90
16829;DHT22;8531;48.078;11.968;2024-01-10T00:40:36;-5.20;99.90
16829;DHT22;8531;48.078;11.968;2024-01-10T00:43:02;-5.10;99.90
16829;DHT22;8531;48.078;11.968;2024-01-10T00:45:28;-5.20;99.90
16829;DHT22;8531;48.078;11.968;2024-01-10T00:47:53;-5.10;99.90
16829;DHT22;8531;48.078;11.968;2024-01-10T00:50:19;-5.10;99.90
16829;DHT22;8531;48.078;11.968;2024-01-10T00:52:45;-5.10;99.90
16829;DHT22;8531;48.078;11.968;2024-01-10T00:55:11;-5.10;99.90
16829;DHT22;8531;48.078;11.968;2024-01-10T00:57:37;-5.00;99.90
16829;DHT22;8531;48.078;11.968;2024-01-10T01:00:09;-5.10;99.90
16829;DHT22;8531;48.078;11.968;2024-01-10T01:02:36;-5.00;99.90
16829;DHT22;8531;48.078;11.968;2024-01-10T01:05:03;-5.00;99.90
16829;DHT22;8531;48.078;11.968;2024-01-10T01:07:28;-5.00;99.90
16829;DHT22;8531;48.078;11.968;2024-01-10T01:09:54;-5.10;99.90
16829;DHT22;8531;48.078;11.968;2024-01-10T01:12:20;-5.20;99.90
16829;DHT22;8531;48.078;11.968;2024-01-10T01:14:45;-5.20;99.90
16829;DHT22;8531;48.078;11.968;2024-01-10T01:17:11;-5.20;99.90
16829;DHT22;8531;48.078;11.968;2024-01-10T01:19:37;-5.20;99.90
16829;DHT22;8531;48.078;11.968;2024-01-10T01:22:02;-5.10;99.90
16829;DHT22;8531;48.078;11.968;2024-01-10T01:24:28;-5.20;99.90
16829;DHT22;8531;48.078;11.968;2024-01-10T01:26:54;-5.10;99.90
16829;DHT22;8531;48.078;11.968;2024-01-10T01:29:20;-5.00;99.90
16829;DHT22;8531;48.078;11.968;2024-01-10T01:31:46;-5.10;99.90
16829;DHT22;8531;48.078;11.968;2024-01-10T01:34:12;-5.00;99.90
16829;DHT22;8531;48.078;11.968;2024-01-10T01:36:37;-5.00;99.90
16829;DHT22;8531;48.078;11.968;2024-01-10T01:39:03;-5.00;99.90
16829;DHT22;8531;48.078;11.968;2024-01-10T01:41:29;-5.00;99.90
16829;DHT22;8531;48.078;11.968;2024-01-10T01:43:54;-5.00;99.90
16829;DHT22;8531;48.078;11.968;2024-01-10T01:46:21;-5.00;99.90
16829;DHT22;8531;48.078;11.968;2024-01-10T01:48:46;-5.00;99.90
16829;DHT22;8531;48.078;11.968;2024-01-10T01:51:13;-5.00;99.90
16829;DHT22;8531;48.078;11.968;2024-01-10T01:53:40;-5.10;99.90
16829;DHT22;8531;48.078;11.968;2024-01-10T01:56:08;-5.00;99.90
16829;DHT22;8531;48.078;11.968;2024-01-10T01:58:35;-5.00;99.90
16829;DHT22;8531;48.078;11.968;2024-01-10T02:01:03;-5.10;99.90
16829;DHT22;8531;48.078;11.968;2024-01-10T02:03:31;-5.00;99.90
16829;DHT22;8531;48.078;11.968;2024-01-10T02:05:57;-5.10;99.90
16829;DHT22;8531;48.078;11.968;2024-01-10T02:08:23;-5.10;99.90
16829;DHT22;8531;48.078;11.968;2024-01-10T02:10:49;-5.10;99.90
16829;DHT22;8531;48.078;11.968;2024-01-10T02:13:15;-5.10;99.90
16829;DHT22;8531;48.078;11.968;2024-01-10T02:15:41;-5.00;99.90
16829;DHT22;8531;48.078;11.968;2024-01-10T02:18:07;-5.00;99.90
16829;DHT22;8531;48.078;11.968;2024-01-10T02:20:33;-5.00;99.90
16829;DHT22;8531;48.078;11.968;2024-01-10T02:22:58;-4.90;99.90
16829;DHT22;8531;48.078;11.968;2024-01-10T02:25:24;-4.90;99.90
16829;DHT22;8531;48.078;11.968;2024-01-10T02:27:50;-4.90;99.90
16829;DHT22;8531;48.078;11.968;2024-01-10T02:30:15;-4.90;99.90
16829;DHT22;8531;48.078;11.968;2024-01-10T02:32:41;-4.90;99.90
16829;DHT22;8531;48.078;11.968;2024-01-10T02:35:07;-5.00;99.90
16829;DHT22;8531;48.078;11.968;2024-01-10T02:37:33;-5.10;99.90
16829;DHT22;8531;48.078;11.968;2024-01-10T02:39:59;-5.20;99.90
16829;DHT22;8531;48.078;11.968;2024-01-10T02:42:27;-5.20;99.90
16829;DHT22;8531;48.078;11.968;2024-01-10T02:44:54;-5.10;99.90
16829;DHT22;8531;48.078;11.968;2024-01-10T02:47:19;-5.10;99.90
16829;DHT22;8531;48.078;11.968;2024-01-10T02:49:45;-5.10;99.90
16829;DHT22;8531;48.078;11.968;2024-01-10T02:52:11;-5.20;99.90
16829;DHT22;8531;48.078;11.968;2024-01-10T02:54:38;-5.10;99.90
16829;DHT22;8531;48.078;11.968;2024-01-10T02:57:03;-5.10;99.90
16829;DHT22;8531;48.078;11.968;2024-01-10T02:59:29;-5.10;99.90
16829;DHT22;8531;48.078;11.968;2024-01-10T03:01:55;-5.10;99.90
16829;DHT22;8531;48.078;11.968;2024-01-10T03:04:20;-5.10;99.90
16829;DHT22;8531;48.078;11.968;2024-01-10T03:06:46;-5.20;99.90
16829;DHT22;8531;48.078;11.968;2024-01-10T03:09:12;-5.20;99.90
16829;DHT22;8531;48.078;11.968;2024-01-10T03:11:37;-5.20;99.90
16829;DHT22;8531;48.078;11.968;2024-01-10T03:14:07;-5.30;99.90
16829;DHT22;8531;48.078;11.968;2024-01-10T03:16:33;-5.20;99.90
16829;DHT22;8531;48.078;11.968;2024-01-10T03:18:59;-5.20;99.90
16829;DHT22;8531;48.078;11.968;2024-01-10T03:21:25;-5.20;99.90
16829;DHT22;8531;48.078;11.968;2024-01-10T03:23:55;-5.10;99.90
16829;DHT22;8531;48.078;11.968;2024-01-10T03:26:21;-5.20;99.90
16829;DHT22;8531;48.078;11.968;2024-01-10T03:28:47;-5.40;99.90
16829;DHT22;8531;48.078;11.968;2024-01-10T03:31:14;-5.30;99.90
16829;DHT22;8531;48.078;11.968;2024-01-10T03:33:39;-5.40;99.90
16829;DHT22;8531;48.078;11.968;2024-01-10T03:36:06;-5.40;99.90
16829;DHT22;8531;48.078;11.968;2024-01-10T03:38:32;-5.40;99.90
16829;DHT22;8531;48.078;11.968;2024-01-10T03:40:57;-5.50;99.90
16829;DHT22;8531;48.078;11.968;2024-01-10T03:43:23;-5.50;99.90
16829;DHT22;8531;48.078;11.968;2024-01-10T03:45:49;-5.50;99.90
16829;DHT22;8531;48.078;11.968;2024-01-10T03:48:14;-5.50;99.90
16829;DHT22;8531;48.078;11.968;2024-01-10T03:50:40;-5.40;99.90
16829;DHT22;8531;48.078;11.968;2024-01-10T03:53:06;-5.50;99.90
16829;DHT22;8531;48.078;11.968;2024-01-10T03:55:32;-5.70;99.90
16829;DHT22;8531;48.078;11.968;2024-01-10T03:57:57;-5.60;99.90
16829;DHT22;8531;48.078;11.968;2024-01-10T04:00:23;-5.50;99.90
16829;DHT22;8531;48.078;11.968;2024-01-10T04:02:50;-5.70;99.90
16829;DHT22;8531;48.078;11.968;2024-01-10T04:05:16;-5.80;99.90
16829;DHT22;8531;48.078;11.968;2024-01-10T04:07:42;-5.80;99.90
16829;DHT22;8531;48.078;11.968;2024-01-10T04:10:11;-5.80;99.90
16829;DHT22;8531;48.078;11.968;2024-01-10T04:12:40;-5.80;99.90
16829;DHT22;8531;48.078;11.968;2024-01-10T04:15:06;-5.90;99.90
16829;DHT22;8531;48.078;11.968;2024-01-10T04:17:32;-5.80;99.90
16829;DHT22;8531;48.078;11.968;2024-01-10T04:19:58;-5.70;99.90
16829;DHT22;8531;48.078;11.968;2024-01-10T04:22:24;-5.80;99.90
16829;DHT22;8531;48.078;11.968;2024-01-10T04:24:50;-5.90;99.90
16829;DHT22;8531;48.078;11.968;2024-01-10T04:27:16;-5.70;99.90
16829;DHT22;8531;48.078;11.968;2024-01-10T04:29:43;-5.70;99.90
16829;DHT22;8531;48.078;11.968;2024-01-10T04:32:09;-5.60;99.90
16829;DHT22;8531;48.078;11.968;2024-01-10T04:34:35;-5.40;99.90
16829;DHT22;8531;48.078;11.968;2024-01-10T04:37:00;-5.50;99.90
16829;DHT22;8531;48.078;11.968;2024-01-10T04:39:26;-5.50;99.90
16829;DHT22;8531;48.078;11.968;2024-01-10T04:41:52;-5.80;99.90
16829;DHT22;8531;48.078;11.968;2024-01-10T04:44:18;-5.80;99.90
16829;DHT22;8531;48.078;11.968;2024-01-10T04:46:43;-5.90;99.90
16829;DHT22;8531;48.078;11.968;2024-01-10T04:49:09;-5.70;99.90
16829;DHT22;8531;48.078;11.968;2024-01-10T04:51:35;-5.60;99.90
16829;DHT22;8531;48.078;11.968;2024-01-10T04:54:01;-5.70;99.90
16829;DHT22;8531;48.078;11.968;2024-01-10T04:56:26;-5.90;99.90
16829;DHT22;8531;48.078;11.968;2024-01-10T04:58:52;-5.80;99.90
16829;DHT22;8531;48.078;11.968;2024-01-10T05:01:18;-5.80;99.90
16829;DHT22;8531;48.078;11.968;2024-01-10T05:03:44;-5.80;99.90
16829;DHT22;8531;48.078;11.968;2024-01-10T05:06:09;-5.70;99.90
16829;DHT22;8531;48.078;11.968;2024-01-10T05:08:35;-5.70;99.90
16829;DHT22;8531;48.078;11.968;2024-01-10T05:11:01;-5.60;99.90
16829;DHT22;8531;48.078;11.968;2024-01-10T05:13:27;-5.60;99.90
16829;DHT22;8531;48.078;11.968;2024-01-10T05:15:53;-5.80;99.90
16829;DHT22;8531;48.078;11.968;2024-01-10T05:18:20;-5.80;99.90
16829;DHT22;8531;48.078;11.968;2024-01-10T05:20:46;-5.80;99.90
16829;DHT22;8531;48.078;11.968;2024-01-10T05:23:11;-5.80;99.90
16829;DHT22;8531;48.078;11.968;2024-01-10T05:25:37;-5.80;99.90
16829;DHT22;8531;48.078;11.968;2024-01-10T05:28:03;-5.80;99.90
16829;DHT22;8531;48.078;11.968;2024-01-10T05:30:29;-5.80;99.90
16829;DHT22;8531;48.078;11.968;2024-01-10T05:32:55;-5.80;99.90
16829;DHT22;8531;48.078;11.968;2024-01-10T05:35:21;-5.80;99.90
16829;DHT22;8531;48.078;11.968;2024-01-10T05:37:46;-5.80;99.90
16829;DHT22;8531;48.078;11.968;2024-01-10T05:40:12;-5.70;99.90
16829;DHT22;8531;48.078;11.968;2024-01-10T05:42:38;-5.80;99.90
16829;DHT22;8531;48.078;11.968;2024-01-10T05:45:04;-5.80;99.90
16829;DHT22;8531;48.078;11.968;2024-01-10T05:47:31;-5.70;99.90
16829;DHT22;8531;48.078;11.968;2024-01-10T05:49:57;-5.80;99.90
16829;DHT22;8531;48.078;11.968;2024-01-10T05:52:22;-5.90;99.90
16829;DHT22;8531;48.078;11.968;2024-01-10T05:54:48;-5.80;99.90
16829;DHT22;8531;48.078;11.968;2024-01-10T05:57:14;-5.90;99.90
16829;DHT22;8531;48.078;11.968;2024-01-10T05:59:41;-5.90;99.90
16829;DHT22;8531;48.078;11.968;2024-01-10T06:02:06;-5.70;99.90
16829;DHT22;8531;48.078;11.968;2024-01-10T06:04:32;-5.70;99.90
16829;DHT22;8531;48.078;11.968;2024-01-10T06:07:01;-5.70;99.90
16829;DHT22;8531;48.078;11.968;2024-01-10T06:09:27;-5.80;99.90
16829;DHT22;8531;48.078;11.968;2024-01-10T06:11:53;-5.70;99.90
16829;DHT22;8531;48.078;11.968;2024-01-10T06:14:18;-5.70;99.90
16829;DHT22;8531;48.078;11.968;2024-01-10T06:16:44;-5.70;99.90
16829;DHT22;8531;48.078;11.968;2024-01-10T06:19:11;-5.70;99.90
16829;DHT22;8531;48.078;11.968;2024-01-10T06:21:37;-5.70;99.90
16829;DHT22;8531;48.078;11.968;2024-01-10T06:24:03;-5.70;99.90
16829;DHT22;8531;48.078;11.968;2024-01-10T06:26:29;-5.70;99.90
16829;DHT22;8531;48.078;11.968;2024-01-10T06:28:55;-5.70;99.90
16829;DHT22;8531;48.078;11.968;2024-01-10T06:31:21;-5.80;99.90
16829;DHT22;8531;48.078;11.968;2024-01-10T06:33:47;-5.80;99.90
16829;DHT22;8531;48.078;11.968;2024-01-10T06:36:13;-5.70;99.90
16829;DHT22;8531;48.078;11.968;2024-01-10T06:38:39;-5.60;99.90
16829;DHT22;8531;48.078;11.968;2024-01-10T06:41:08;-5.60;99.90
16829;DHT22;8531;48.078;11.968;2024-01-10T06:43:34;-5.50;99.90
16829;DHT22;8531;48.078;11.968;2024-01-10T06:46:00;-5.60;99.90
16829;DHT22;8531;48.078;11.968;2024-01-10T06:48:25;-5.70;99.90
16829;DHT22;8531;48.078;11.968;2024-01-10T06:50:52;-5.60;99.90
16829;DHT22;8531;48.078;11.968;2024-01-10T06:53:18;-5.60;99.90
16829;DHT22;8531;48.078;11.968;2024-01-10T06:55:43;-5.60;99.90
16829;DHT22;8531;48.078;11.968;2024-01-10T06:58:09;-5.50;99.90
16829;DHT22;8531;48.078;11.968;2024-01-10T07:00:35;-5.50;99.90
16829;DHT22;8531;48.078;11.968;2024-01-10T07:03:01;-5.50;99.90
16829;DHT22;8531;48.078;11.968;2024-01-10T07:05:27;-5.60;99.90
16829;DHT22;8531;48.078;11.968;2024-01-10T07:07:54;-5.60;99.90
16829;DHT22;8531;48.078;11.968;2024-01-10T07:10:19;-5.70;99.90
16829;DHT22;8531;48.078;11.968;2024-01-10T07:12:45;-5.70;99.90
16829;DHT22;8531;48.078;11.968;2024-01-10T07:15:10;-5.80;99.90
16829;DHT22;8531;48.078;11.968;2024-01-10T07:17:37;-5.70;99.90
16829;DHT22;8531;48.078;11.968;2024-01-10T07:20:03;-5.70;99.90
16829;DHT22;8531;48.078;11.968;2024-01-10T07:22:30;-5.80;99.90
16829;DHT22;8531;48.078;11.968;2024-01-10T07:24:56;-5.70;99.90
16829;DHT22;8531;48.078;11.968;2024-01-10T07:27:22;-5.60;99.90
16829;DHT22;8531;48.078;11.968;2024-01-10T07:29:48;-5.50;99.90
16829;DHT22;8531;48.078;11.968;2024-01-10T07:32:13;-5.40;99.90
16829;DHT22;8531;48.078;11.968;2024-01-10T07:34:39;-5.40;99.90
16829;DHT22;8531;48.078;11.968;2024-01-10T07:37:05;-5.50;99.90
16829;DHT22;8531;48.078;11.968;2024-01-10T07:39:31;-5.50;99.90
16829;DHT22;8531;48.078;11.968;2024-01-10T07:41:57;-5.50;99.90
16829;DHT22;8531;48.078;11.968;2024-01-10T07:44:24;-5.40;99.90
16829;DHT22;8531;48.078;11.968;2024-01-10T07:46:50;-5.30;99.90
16829;DHT22;8531;48.078;11.968;2024-01-10T07:49:20;-5.40;99.90
16829;DHT22;8531;48.078;11.968;2024-01-10T07:51:47;-5.30;99.90
16829;DHT22;8531;48.078;11.968;2024-01-10T07:54:13;-5.30;99.90
16829;DHT22;8531;48.078;11.968;2024-01-10T07:56:39;-5.30;99.90
16829;DHT22;8531;48.078;11.968;2024-01-10T07:59:05;-5.10;99.90
16829;DHT22;8531;48.078;11.968;2024-01-10T08:01:31;-4.80;99.90
16829;DHT22;8531;48.078;11.968;2024-01-10T08:03:57;-5.00;99.90
16829;DHT22;8531;48.078;11.968;2024-01-10T08:06:23;-4.80;99.90
16829;DHT22;8531;48.078;11.968;2024-01-10T08:08:49;-4.70;99.90
16829;DHT22;8531;48.078;11.968;2024-01-10T08:11:16;-4.70;99.90
16829;DHT22;8531;48.078;11.968;2024-01-10T08:13:42;-4.60;99.90
16829;DHT22;8531;48.078;11.968;2024-01-10T08:16:07;-4.60;99.90
16829;DHT22;8531;48.078;11.968;2024-01-10T08:18:36;-4.70;99.90
16829;DHT22;8531;48.078;11.968;2024-01-10T08:21:01;-4.60;99.90
16829;DHT22;8531;48.078;11.968;2024-01-10T08:23:29;-4.60;99.90
16829;DHT22;8531;48.078;11.968;2024-01-10T08:25:55;-4.60;99.90
16829;DHT22;8531;48.078;11.968;2024-01-10T08:28:21;-4.70;99.90
16829;DHT22;8531;48.078;11.968;2024-01-10T08:30:46;-4.70;99.90
16829;DHT22;8531;48.078;11.968;2024-01-10T08:33:12;-4.70;99.90
16829;DHT22;8531;48.078;11.968;2024-01-10T08:35:38;-4.70;99.90
16829;DHT22;8531;48.078;11.968;2024-01-10T08:38:04;-4.70;99.90
16829;DHT22;8531;48.078;11.968;2024-01-10T08:40:32;-4.50;99.90
16829;DHT22;8531;48.078;11.968;2024-01-10T08:42:58;-4.60;99.90
16829;DHT22;8531;48.078;11.968;2024-01-10T08:45:23;-4.60;99.90
16829;DHT22;8531;48.078;11.968;2024-01-10T08:47:50;-4.50;99.90
16829;DHT22;8531;48.078;11.968;2024-01-10T08:50:15;-4.60;99.90
16829;DHT22;8531;48.078;11.968;2024-01-10T08:52:42;-4.50;99.90
16829;DHT22;8531;48.078;11.968;2024-01-10T08:55:08;-4.40;99.90
16829;DHT22;8531;48.078;11.968;2024-01-10T08:57:34;-4.50;99.90
16829;DHT22;8531;48.078;11.968;2024-01-10T09:00:00;-4.40;99.90
16829;DHT22;8531;48.078;11.968;2024-01-10T09:02:26;-4.30;99.90
16829;DHT22;8531;48.078;11.968;2024-01-10T09:04:53;-4.20;99.90
16829;DHT22;8531;48.078;11.968;2024-01-10T09:07:18;-4.20;99.90
16829;DHT22;8531;48.078;11.968;2024-01-10T09:09:45;-4.20;99.90
16829;DHT22;8531;48.078;11.968;2024-01-10T09:12:11;-4.10;99.90
16829;DHT22;8531;48.078;11.968;2024-01-10T09:14:36;-4.10;99.90
16829;DHT22;8531;48.078;11.968;2024-01-10T09:17:02;-4.10;99.90
16829;DHT22;8531;48.078;11.968;2024-01-10T09:19:30;-4.00;99.90
16829;DHT22;8531;48.078;11.968;2024-01-10T09:21:56;-4.00;99.90
16829;DHT22;8531;48.078;11.968;2024-01-10T09:24:23;-4.00;99.90
16829;DHT22;8531;48.078;11.968;2024-01-10T09:26:51;-4.10;99.90
16829;DHT22;8531;48.078;11.968;2024-01-10T09:29:17;-4.30;99.90
16829;DHT22;8531;48.078;11.968;2024-01-10T09:31:43;-4.30;99.90
16829;DHT22;8531;48.078;11.968;2024-01-10T09:34:09;-4.50;99.90
16829;DHT22;8531;48.078;11.968;2024-01-10T09:36:34;-4.50;99.90
16829;DHT22;8531;48.078;11.968;2024-01-10T09:39:00;-4.30;99.90
16829;DHT22;8531;48.078;11.968;2024-01-10T09:41:28;-4.20;99.90
16829;DHT22;8531;48.078;11.968;2024-01-10T09:43:55;-4.30;99.90
16829;DHT22;8531;48.078;11.968;2024-01-10T09:46:21;-4.20;99.90
16829;DHT22;8531;48.078;11.968;2024-01-10T09:48:47;-4.30;99.90
16829;DHT22;8531;48.078;11.968;2024-01-10T09:51:13;-4.30;99.90
16829;DHT22;8531;48.078;11.968;2024-01-10T09:53:44;-4.20;99.90
16829;DHT22;8531;48.078;11.968;2024-01-10T09:56:15;-4.20;99.90
16829;DHT22;8531;48.078;11.968;2024-01-10T09:58:44;-4.20;99.90
16829;DHT22;8531;48.078;11.968;2024-01-10T10:01:10;-4.20;99.90
16829;DHT22;8531;48.078;11.968;2024-01-10T10:03:36;-4.10;99.90
16829;DHT22;8531;48.078;11.968;2024-01-10T10:06:03;-4.00;99.90
16829;DHT22;8531;48.078;11.968;2024-01-10T10:08:29;-4.10;99.90
16829;DHT22;8531;48.078;11.968;2024-01-10T10:10:55;-4.10;99.90
16829;DHT22;8531;48.078;11.968;2024-01-10T10:13:25;-4.20;99.90
16829;DHT22;8531;48.078;11.968;2024-01-10T10:16:04;-4.00;99.90
16829;DHT22;8531;48.078;11.968;2024-01-10T10:18:31;-4.00;99.90
16829;DHT22;8531;48.078;11.968;2024-01-10T10:21:26;-4.00;99.90
16829;DHT22;8531;48.078;11.968;2024-01-10T10:24:01;-4.00;99.90
16829;DHT22;8531;48.078;11.968;2024-01-10T10:26:32;-4.10;99.90
16829;DHT22;8531;48.078;11.968;2024-01-10T10:28:58;-3.90;99.90
16829;DHT22;8531;48.078;11.968;2024-01-10T10:31:24;-3.90;99.90
16829;DHT22;8531;48.078;11.968;2024-01-10T10:33:51;-3.80;99.90
16829;DHT22;8531;48.078;11.968;2024-01-10T10:36:20;-3.70;99.90
16829;DHT22;8531;48.078;11.968;2024-01-10T10:38:47;-3.60;99.90
16829;DHT22;8531;48.078;11.968;2024-01-10T10:41:14;-3.60;99.90
16829;DHT22;8531;48.078;11.968;2024-01-10T10:43:41;-3.60;99.90
16829;DHT22;8531;48.078;11.968;2024-01-10T10:46:09;-3.60;99.90
16829;DHT22;8531;48.078;11.968;2024-01-10T10:48:36;-3.40;99.90
16829;DHT22;8531;48.078;11.968;2024-01-10T10:53:38;-3.50;99.90
16829;DHT22;8531;48.078;11.968;2024-01-10T10:56:06;-3.30;99.90
16829;DHT22;8531;48.078;11.968;2024-01-10T10:58:38;-3.20;99.90
16829;DHT22;8531;48.078;11.968;2024-01-10T11:01:08;-3.20;99.90
16829;DHT22;8531;48.078;11.968;2024-01-10T11:03:36;-3.10;99.90
16829;DHT22;8531;48.078;11.968;2024-01-10T11:06:03;-3.00;99.90
16829;DHT22;8531;48.078;11.968;2024-01-10T11:08:37;-2.90;99.90
16829;DHT22;8531;48.078;11.968;2024-01-10T11:11:07;-2.90;99.90
16829;DHT22;8531;48.078;11.968;2024-01-10T11:14:06;-2.90;99.90
16829;DHT22;8531;48.078;11.968;2024-01-10T11:20:13;-2.80;99.90
16829;DHT22;8531;48.078;11.968;2024-01-10T11:25:30;-2.80;99.90
16829;DHT22;8531;48.078;11.968;2024-01-10T11:27:56;-2.80;99.90
16829;DHT22;8531;48.078;11.968;2024-01-10T11:30:34;-2.80;99.90
16829;DHT22;8531;48.078;11.968;2024-01-10T11:33:02;-2.70;99.90
16829;DHT22;8531;48.078;11.968;2024-01-10T11:35:28;-2.80;99.90
16829;DHT22;8531;48.078;11.968;2024-01-10T11:37:59;-2.80;99.90
16829;DHT22;8531;48.078;11.968;2024-01-10T11:40:47;-2.80;99.90
16829;DHT22;8531;48.078;11.968;2024-01-10T11:43:16;-2.90;99.90
16829;DHT22;8531;48.078;11.968;2024-01-10T11:45:52;-2.90;99.90
16829;DHT22;8531;48.078;11.968;2024-01-10T11:48:27;-2.80;99.90
16829;DHT22;8531;48.078;11.968;2024-01-10T11:50:54;-2.70;99.90
16829;DHT22;8531;48.078;11.968;2024-01-10T11:56:14;-2.60;99.90
16829;DHT22;8531;48.078;11.968;2024-01-10T11:59:03;-2.60;99.90
16829;DHT22;8531;48.078;11.968;2024-01-10T12:01:33;-2.70;99.90
16829;DHT22;8531;48.078;11.968;2024-01-10T12:04:00;-2.60;99.90
16829;DHT22;8531;48.078;11.968;2024-01-10T12:06:26;-2.70;99.90
16829;DHT22;8531;48.078;11.968;2024-01-10T12:08:51;-2.70;99.90
16829;DHT22;8531;48.078;11.968;2024-01-10T12:11:17;-2.70;99.90
16829;DHT22;8531;48.078;11.968;2024-01-10T12:13:43;-2.80;99.90
16829;DHT22;8531;48.078;11.968;2024-01-10T12:16:12;-2.70;99.90
16829;DHT22;8531;48.078;11.968;2024-01-10T12:18:38;-2.80;99.90
16829;DHT22;8531;48.078;11.968;2024-01-10T12:21:04;-2.80;99.90
16829;DHT22;8531;48.078;11.968;2024-01-10T12:23:30;-2.90;99.90
16829;DHT22;8531;48.078;11.968;2024-01-10T12:25:58;-2.90;99.90
16829;DHT22;8531;48.078;11.968;2024-01-10T12:28:26;-2.90;99.90
16829;DHT22;8531;48.078;11.968;2024-01-10T12:30:52;-2.90;99.90
16829;DHT22;8531;48.078;11.968;2024-01-10T12:33:22;-2.80;99.90
16829;DHT22;8531;48.078;11.968;2024-01-10T12:36:08;-2.80;99.90
16829;DHT22;8531;48.078;11.968;2024-01-10T12:38:38;-2.90;99.90
16829;DHT22;8531;48.078;11.968;2024-01-10T12:41:04;-3.00;99.90
16829;DHT22;8531;48.078;11.968;2024-01-10T12:43:33;-2.90;99.90
16829;DHT22;8531;48.078;11.968;2024-01-10T12:46:06;-2.80;99.90
16829;DHT22;8531;48.078;11.968;2024-01-10T12:48:33;-2.90;99.90
16829;DHT22;8531;48.078;11.968;2024-01-10T12:50:59;-2.90;99.90
16829;DHT22;8531;48.078;11.968;2024-01-10T12:53:34;-2.80;99.90
16829;DHT22;8531;48.078;11.968;2024-01-10T12:56:01;-2.80;99.90
16829;DHT22;8531;48.078;11.968;2024-01-10T12:58:28;-2.70;99.90
16829;DHT22;8531;48.078;11.968;2024-01-10T13:00:53;-2.60;99.90
16829;DHT22;8531;48.078;11.968;2024-01-10T13:03:19;-2.60;99.90
16829;DHT22;8531;48.078;11.968;2024-01-10T13:05:45;-2.50;99.90
16829;DHT22;8531;48.078;11.968;2024-01-10T13:08:11;-2.60;99.90
16829;DHT22;8531;48.078;11.968;2024-01-10T13:10:38;-2.60;99.90
16829;DHT22;8531;48.078;11.968;2024-01-10T13:13:04;-2.60;99.90
16829;DHT22;8531;48.078;11.968;2024-01-10T13:15:29;-2.60;99.90
16829;DHT22;8531;48.078;11.968;2024-01-10T13:17:56;-2.60;99.90
16829;DHT22;8531;48.078;11.968;2024-01-10T13:20:23;-2.50;99.90
16829;DHT22;8531;48.078;11.968;2024-01-10T13:22:50;-2.50;99.90
16829;DHT22;8531;48.078;11.968;2024-01-10T13:25:16;-2.50;99.90
16829;DHT22;8531;48.078;11.968;2024-01-10T13:27:42;-2.50;99.90
16829;DHT22;8531;48.078;11.968;2024-01-10T13:30:08;-2.50;99.90
16829;DHT22;8531;48.078;11.968;2024-01-10T13:32:37;-2.50;99.90
16829;DHT22;8531;48.078;11.968;2024-01-10T13:35:06;-2.50;99.90
16829;DHT22;8531;48.078;11.968;2024-01-10T13:37:32;-2.50;99.90
16829;DHT22;8531;48.078;11.968;2024-01-10T13:39:58;-2.50;99.90
16829;DHT22;8531;48.078;11.968;2024-01-10T13:42:24;-2.50;99.90
16829;DHT22;8531;48.078;11.968;2024-01-10T13:44:50;-2.60;99.90
16829;DHT22;8531;48.078;11.968;2024-01-10T13:47:20;-2.50;99.90
16829;DHT22;8531;48.078;11.968;2024-01-10T13:49:49;-2.50;99.90
16829;DHT22;8531;48.078;11.968;2024-01-10T13:52:14;-2.50;99.90
16829;DHT22;8531;48.078;11.968;2024-01-10T13:54:40;-2.60;99.90
16829;DHT22;8531;48.078;11.968;2024-01-10T13:57:06;-2.60;99.90
16829;DHT22;8531;48.078;11.968;2024-01-10T13:59:31;-2.80;99.90
16829;DHT22;8531;48.078;11.968;2024-01-10T14:01:59;-2.80;99.90
16829;DHT22;8531;48.078;11.968;2024-01-10T14:04:26;-2.70;99.90
16829;DHT22;8531;48.078;11.968;2024-01-10T14:06:51;-2.60;99.90
16829;DHT22;8531;48.078;11.968;2024-01-10T14:09:17;-2.50;99.90
16829;DHT22;8531;48.078;11.968;2024-01-10T14:11:43;-2.50;99.90
16829;DHT22;8531;48.078;11.968;2024-01-10T14:14:15;-2.50;99.90
16829;DHT22;8531;48.078;11.968;2024-01-10T14:16:41;-2.60;99.90
16829;DHT22;8531;48.078;11.968;2024-01-10T14:19:07;-2.70;99.90
16829;DHT22;8531;48.078;11.968;2024-01-10T14:21:33;-2.70;99.90
16829;DHT22;8531;48.078;11.968;2024-01-10T14:23:58;-2.70;99.90
16829;DHT22;8531;48.078;11.968;2024-01-10T14:26:24;-2.70;99.90
16829;DHT22;8531;48.078;11.968;2024-01-10T14:28:52;-2.60;99.90
16829;DHT22;8531;48.078;11.968;2024-01-10T14:31:21;-2.70;99.90
16829;DHT22;8531;48.078;11.968;2024-01-10T14:33:47;-2.60;99.90
16829;DHT22;8531;48.078;11.968;2024-01-10T14:36:12;-2.50;99.90
16829;DHT22;8531;48.078;11.968;2024-01-10T14:38:41;-2.50;99.90
16829;DHT22;8531;48.078;11.968;2024-01-10T14:41:07;-2.60;99.90
16829;DHT22;8531;48.078;11.968;2024-01-10T14:43:36;-2.60;99.90
16829;DHT22;8531;48.078;11.968;2024-01-10T14:46:04;-2.60;99.90
16829;DHT22;8531;48.078;11.968;2024-01-10T14:48:34;-2.70;99.90
16829;DHT22;8531;48.078;11.968;2024-01-10T14:51:00;-2.60;99.90
16829;DHT22;8531;48.078;11.968;2024-01-10T14:53:26;-2.70;99.90
16829;DHT22;8531;48.078;11.968;2024-01-10T14:55:52;-2.80;99.90
16829;DHT22;8531;48.078;11.968;2024-01-10T14:58:18;-2.80;99.90
16829;DHT22;8531;48.078;11.968;2024-01-10T15:00:44;-2.80;99.90
16829;DHT22;8531;48.078;11.968;2024-01-10T15:03:10;-2.80;99.90
16829;DHT22;8531;48.078;11.968;2024-01-10T15:05:36;-2.80;99.90
16829;DHT22;8531;48.078;11.968;2024-01-10T15:08:02;-2.90;99.90
16829;DHT22;8531;48.078;11.968;2024-01-10T15:10:33;-2.90;99.90
16829;DHT22;8531;48.078;11.968;2024-01-10T15:12:59;-2.90;99.90
16829;DHT22;8531;48.078;11.968;2024-01-10T15:15:24;-2.90;99.90
16829;DHT22;8531;48.078;11.968;2024-01-10T15:17:50;-3.10;99.90
16829;DHT22;8531;48.078;11.968;2024-01-10T15:20:16;-3.10;99.90
16829;DHT22;8531;48.078;11.968;2024-01-10T15:22:41;-3.10;99.90
16829;DHT22;8531;48.078;11.968;2024-01-10T15:25:07;-3.10;99.90
16829;DHT22;8531;48.078;11.968;2024-01-10T15:27:33;-3.20;99.90
16829;DHT22;8531;48.078;11.968;2024-01-10T15:29:59;-3.20;99.90
16829;DHT22;8531;48.078;11.968;2024-01-10T15:32:25;-3.20;99.90
16829;DHT22;8531;48.078;11.968;2024-01-10T15:34:51;-3.10;99.90
16829;DHT22;8531;48.078;11.968;2024-01-10T15:37:17;-3.30;99.90
16829;DHT22;8531;48.078;11.968;2024-01-10T15:39:42;-3.40;99.90